sensor_id;sensor_type;location;lat;lon;timestamp;pressure;altitude;pressure_sealevel;temperature;humidity
3428;BME280;1727;42.624;23.406;2023-08-12T00:01:32;95407.38;;;19.79;80.17
3428;BME280;1727;42.624;23.406;2023-08-12T00:03:59;95404.06;;;19.77;80.17
3428;BME280;1727;42.624;23.406;2023-08-12T00:06:27;95410.88;;;19.79;80.36
3428;BME280;1727;42.624;23.406;2023-08-12T00:08:54;95403.22;;;19.76;80.29
3428;BME280;1727;42.624;23.406;2023-08-12T00:11:21;95394.94;;;19.71;80.38
3428;BME280;1727;42.624;23.406;2023-08-12T00:13:48;95399.25;;;19.72;80.40
3428;BME280;1727;42.624;23.406;2023-08-12T00:16:15;95402.59;;;19.74;80.35
3428;BME280;1727;42.624;23.406;2023-08-12T00:18:42;95398.97;;;19.67;80.63
3428;BME280;1727;42.624;23.406;2023-08-12T00:21:09;95400.94;;;19.65;80.79
3428;BME280;1727;42.624;23.406;2023-08-12T00:23:39;95395.31;;;19.52;81.21
3428;BME280;1727;42.624;23.406;2023-08-12T00:26:06;95395.34;;;19.44;80.95
3428;BME280;1727;42.624;23.406;2023-08-12T00:28:36;95405.00;;;19.45;80.63
3428;BME280;1727;42.624;23.406;2023-08-12T00:31:03;95391.03;;;19.35;80.87
3428;BME280;1727;42.624;23.406;2023-08-12T00:33:30;95399.84;;;19.35;80.93
3428;BME280;1727;42.624;23.406;2023-08-12T00:35:57;95395.88;;;19.31;80.94
3428;BME280;1727;42.624;23.406;2023-08-12T00:38:23;95395.88;;;19.31;81.22
3428;BME280;1727;42.624;23.406;2023-08-12T00:40:52;95397.06;;;19.29;81.20
3428;BME280;1727;42.624;23.406;2023-08-12T00:43:18;95402.56;;;19.27;81.39
3428;BME280;1727;42.624;23.406;2023-08-12T00:45:45;95401.91;;;19.25;81.32
3428;BME280;1727;42.624;23.406;2023-08-12T00:48:13;95403.91;;;19.23;81.88
3428;BME280;1727;42.624;23.406;2023-08-12T00:50:43;95401.41;;;19.22;81.59
3428;BME280;1727;42.624;23.406;2023-08-12T00:53:12;95404.25;;;19.20;81.38
3428;BME280;1727;42.624;23.406;2023-08-12T00:55:40;95400.94;;;19.18;81.64
3428;BME280;1727;42.624;23.406;2023-08-12T00:58:08;95392.63;;;19.13;81.59
3428;BME280;1727;42.624;23.406;2023-08-12T01:00:37;95392.28;;;19.16;80.88
3428;BME280;1727;42.624;23.406;2023-08-12T01:03:05;95398.78;;;19.13;81.32
3428;BME280;1727;42.624;23.406;2023-08-12T01:05:35;95392.13;;;19.09;81.21
3428;BME280;1727;42.624;23.406;2023-08-12T01:08:03;95384.81;;;19.03;81.51
3428;BME280;1727;42.624;23.406;2023-08-12T01:10:33;95401.13;;;19.00;81.89
3428;BME280;1727;42.624;23.406;2023-08-12T01:13:09;95384.00;;;18.95;82.03
3428;BME280;1727;42.624;23.406;2023-08-12T01:15:40;95391.84;;;18.88;81.99
3428;BME280;1727;42.624;23.406;2023-08-12T01:18:08;95391.84;;;18.88;82.01
3428;BME280;1727;42.624;23.406;2023-08-12T01:20:35;95383.88;;;18.88;81.92
3428;BME280;1727;42.624;23.406;2023-08-12T01:23:10;95385.03;;;18.85;81.91
3428;BME280;1727;42.624;23.406;2023-08-12T01:25:37;95381.88;;;18.82;82.05
3428;BME280;1727;42.624;23.406;2023-08-12T01:28:04;95384.69;;;18.72;82.30
3428;BME280;1727;42.624;23.406;2023-08-12T01:30:32;95380.88;;;18.67;82.50
3428;BME280;1727;42.624;23.406;2023-08-12T01:33:07;95384.22;;;18.69;82.38
3428;BME280;1727;42.624;23.406;2023-08-12T01:35:40;95379.03;;;18.59;82.72
3428;BME280;1727;42.624;23.406;2023-08-12T01:38:10;95376.38;;;18.59;82.69
3428;BME280;1727;42.624;23.406;2023-08-12T01:40:38;95381.88;;;18.57;82.67
3428;BME280;1727;42.624;23.406;2023-08-12T01:43:06;95376.06;;;18.54;82.75
3428;BME280;1727;42.624;23.406;2023-08-12T01:45:33;95375.88;;;18.47;83.00
3428;BME280;1727;42.624;23.406;2023-08-12T01:48:03;95375.56;;;18.50;82.83
3428;BME280;1727;42.624;23.406;2023-08-12T01:50:30;95370.56;;;18.47;82.89
3428;BME280;1727;42.624;23.406;2023-08-12T01:52:57;95373.56;;;18.44;82.81
3428;BME280;1727;42.624;23.406;2023-08-12T01:55:25;95378.88;;;18.44;83.09
3428;BME280;1727;42.624;23.406;2023-08-12T01:57:52;95381.84;;;18.41;82.88
3428;BME280;1727;42.624;23.406;2023-08-12T02:00:19;95375.56;;;18.42;82.95
3428;BME280;1727;42.624;23.406;2023-08-12T02:02:46;95380.53;;;18.37;82.97
3428;BME280;1727;42.624;23.406;2023-08-12T02:05:13;95377.22;;;18.35;82.80
3428;BME280;1727;42.624;23.406;2023-08-12T02:07:40;95380.22;;;18.32;82.73
3428;BME280;1727;42.624;23.406;2023-08-12T02:10:07;95376.56;;;18.33;82.64
3428;BME280;1727;42.624;23.406;2023-08-12T02:12:36;95384.84;;;18.30;82.74
3428;BME280;1727;42.624;23.406;2023-08-12T02:15:03;95382.88;;;18.32;82.71
3428;BME280;1727;42.624;23.406;2023-08-12T02:17:30;95379.38;;;18.32;82.86
3428;BME280;1727;42.624;23.406;2023-08-12T02:19:57;95382.69;;;18.25;82.92
3428;BME280;1727;42.624;23.406;2023-08-12T02:22:23;95384.69;;;18.23;83.26
3428;BME280;1727;42.624;23.406;2023-08-12T02:24:50;95380.69;;;18.19;84.03
3428;BME280;1727;42.624;23.406;2023-08-12T02:27:17;95386.16;;;18.18;83.88
3428;BME280;1727;42.624;23.406;2023-08-12T02:29:46;95393.13;;;18.19;83.86
3428;BME280;1727;42.624;23.406;2023-08-12T02:32:12;95389.66;;;18.18;83.68
3428;BME280;1727;42.624;23.406;2023-08-12T02:34:39;95395.13;;;18.17;83.65
3428;BME280;1727;42.624;23.406;2023-08-12T02:37:08;95400.28;;;18.18;83.79
3428;BME280;1727;42.624;23.406;2023-08-12T02:39:35;95388.16;;;18.16;83.28
3428;BME280;1727;42.624;23.406;2023-08-12T02:42:02;95393.47;;;18.16;83.33
3428;BME280;1727;42.624;23.406;2023-08-12T02:44:29;95394.78;;;18.04;83.49
3428;BME280;1727;42.624;23.406;2023-08-12T02:46:59;95401.25;;;18.01;83.52
3428;BME280;1727;42.624;23.406;2023-08-12T02:49:26;95404.91;;;18.00;83.37
3428;BME280;1727;42.624;23.406;2023-08-12T02:51:53;95406.06;;;17.98;83.55
3428;BME280;1727;42.624;23.406;2023-08-12T02:54:20;95399.09;;;17.97;83.19
3428;BME280;1727;42.624;23.406;2023-08-12T02:56:49;95408.34;;;17.92;83.50
3428;BME280;1727;42.624;23.406;2023-08-12T02:59:16;95402.38;;;17.90;83.77
3428;BME280;1727;42.624;23.406;2023-08-12T03:01:43;95407.00;;;17.88;84.19
3428;BME280;1727;42.624;23.406;2023-08-12T03:04:11;95401.03;;;17.86;84.10
3428;BME280;1727;42.624;23.406;2023-08-12T03:06:38;95404.03;;;17.83;84.14
3428;BME280;1727;42.624;23.406;2023-08-12T03:09:05;95409.50;;;17.82;84.07
3428;BME280;1727;42.624;23.406;2023-08-12T03:11:32;95411.31;;;17.81;84.59
3428;BME280;1727;42.624;23.406;2023-08-12T03:13:58;95414.97;;;17.80;84.55
3428;BME280;1727;42.624;23.406;2023-08-12T03:16:25;95417.47;;;17.82;84.33
3428;BME280;1727;42.624;23.406;2023-08-12T03:18:53;95408.66;;;17.81;84.25
3428;BME280;1727;42.624;23.406;2023-08-12T03:21:21;95416.63;;;17.81;84.18
3428;BME280;1727;42.624;23.406;2023-08-12T03:23:48;95414.13;;;17.80;83.88
3428;BME280;1727;42.624;23.406;2023-08-12T03:26:14;95411.97;;;17.75;83.98
3428;BME280;1727;42.624;23.406;2023-08-12T03:28:41;95404.16;;;17.74;83.92
3428;BME280;1727;42.624;23.406;2023-08-12T03:31:09;95411.31;;;17.73;83.83
3428;BME280;1727;42.624;23.406;2023-08-12T03:33:36;95414.31;;;17.86;84.03
3428;BME280;1727;42.624;23.406;2023-08-12T03:36:03;95415.31;;;17.85;83.59
3428;BME280;1727;42.624;23.406;2023-08-12T03:38:32;95419.94;;;17.83;83.35
3428;BME280;1727;42.624;23.406;2023-08-12T03:40:58;95418.28;;;17.82;83.42
3428;BME280;1727;42.624;23.406;2023-08-12T03:43:25;95425.25;;;17.83;83.38
3428;BME280;1727;42.624;23.406;2023-08-12T03:45:52;95417.97;;;17.85;82.90
3428;BME280;1727;42.624;23.406;2023-08-12T03:48:19;95422.78;;;17.82;83.08
3428;BME280;1727;42.624;23.406;2023-08-12T03:50:46;95426.59;;;17.87;83.20
3428;BME280;1727;42.624;23.406;2023-08-12T03:53:13;95428.25;;;17.88;83.20
3428;BME280;1727;42.624;23.406;2023-08-12T03:55:41;95431.59;;;17.90;82.72
3428;BME280;1727;42.624;23.406;2023-08-12T03:58:10;95427.81;;;17.93;82.73
3428;BME280;1727;42.624;23.406;2023-08-12T04:00:40;95424.28;;;17.92;82.99
3428;BME280;1727;42.624;23.406;2023-08-12T04:03:08;95425.31;;;18.00;83.13
3428;BME280;1727;42.624;23.406;2023-08-12T04:05:34;95426.34;;;18.15;82.93
3428;BME280;1727;42.624;23.406;2023-08-12T04:08:03;95421.09;;;18.55;81.04
3428;BME280;1727;42.624;23.406;2023-08-12T04:10:30;95419.06;;;19.14;78.40
3428;BME280;1727;42.624;23.406;2023-08-12T04:12:58;95412.53;;;19.80;75.71
3428;BME280;1727;42.624;23.406;2023-08-12T04:15:25;95419.88;;;20.40;72.64
3428;BME280;1727;42.624;23.406;2023-08-12T04:17:52;95420.78;;;20.93;69.95
3428;BME280;1727;42.624;23.406;2023-08-12T04:20:19;95421.25;;;21.49;67.91
3428;BME280;1727;42.624;23.406;2023-08-12T04:22:47;95427.13;;;22.04;65.74
3428;BME280;1727;42.624;23.406;2023-08-12T04:25:14;95429.03;;;22.46;63.57
3428;BME280;1727;42.624;23.406;2023-08-12T04:27:41;95428.16;;;22.81;62.18
3428;BME280;1727;42.624;23.406;2023-08-12T04:30:12;95436.28;;;23.16;60.97
3428;BME280;1727;42.624;23.406;2023-08-12T04:32:39;95428.25;;;23.44;59.97
3428;BME280;1727;42.624;23.406;2023-08-12T04:35:08;95429.19;;;23.58;59.11
3428;BME280;1727;42.624;23.406;2023-08-12T04:37:35;95428.69;;;23.47;60.05
3428;BME280;1727;42.624;23.406;2023-08-12T04:40:03;95424.44;;;23.60;60.24
3428;BME280;1727;42.624;23.406;2023-08-12T04:42:30;95428.50;;;23.84;60.35
3428;BME280;1727;42.624;23.406;2023-08-12T04:44:57;95431.28;;;24.03;59.96
3428;BME280;1727;42.624;23.406;2023-08-12T04:47:25;95434.53;;;23.99;59.77
3428;BME280;1727;42.624;23.406;2023-08-12T04:49:52;95426.69;;;23.97;59.83
3428;BME280;1727;42.624;23.406;2023-08-12T04:52:19;95427.22;;;23.73;60.34
3428;BME280;1727;42.624;23.406;2023-08-12T04:54:46;95430.94;;;23.44;60.96
3428;BME280;1727;42.624;23.406;2023-08-12T04:57:13;95440.25;;;23.20;62.02
3428;BME280;1727;42.624;23.406;2023-08-12T04:59:41;95440.34;;;23.12;63.05
3428;BME280;1727;42.624;23.406;2023-08-12T05:02:08;95436.00;;;22.83;63.73
3428;BME280;1727;42.624;23.406;2023-08-12T05:04:36;95429.50;;;22.92;63.64
3428;BME280;1727;42.624;23.406;2023-08-12T05:07:03;95431.06;;;23.08;63.67
3428;BME280;1727;42.624;23.406;2023-08-12T05:09:30;95433.84;;;23.21;63.88
3428;BME280;1727;42.624;23.406;2023-08-12T05:11:59;95433.53;;;23.37;63.91
3428;BME280;1727;42.624;23.406;2023-08-12T05:14:28;95439.50;;;23.61;63.01
3428;BME280;1727;42.624;23.406;2023-08-12T05:16:56;95438.41;;;23.83;61.69
3428;BME280;1727;42.624;23.406;2023-08-12T05:19:23;95438.13;;;24.13;61.71
3428;BME280;1727;42.624;23.406;2023-08-12T05:21:51;95438.84;;;24.34;60.12
3428;BME280;1727;42.624;23.406;2023-08-12T05:24:18;95437.63;;;24.37;59.69
3428;BME280;1727;42.624;23.406;2023-08-12T05:26:47;95438.66;;;24.36;60.04
3428;BME280;1727;42.624;23.406;2023-08-12T05:29:14;95437.44;;;24.45;60.38
3428;BME280;1727;42.624;23.406;2023-08-12T05:31:40;95440.94;;;24.52;60.74
3428;BME280;1727;42.624;23.406;2023-08-12T05:34:07;95439.56;;;24.69;60.47
3428;BME280;1727;42.624;23.406;2023-08-12T05:36:35;95445.00;;;25.02;60.34
3428;BME280;1727;42.624;23.406;2023-08-12T05:39:04;95442.91;;;25.38;58.70
3428;BME280;1727;42.624;23.406;2023-08-12T05:41:31;95449.72;;;25.60;57.39
3428;BME280;1727;42.624;23.406;2023-08-12T05:43:58;95451.56;;;25.73;56.22
3428;BME280;1727;42.624;23.406;2023-08-12T05:46:25;95453.22;;;25.80;55.76
3428;BME280;1727;42.624;23.406;2023-08-12T05:48:51;95449.94;;;25.78;54.24
3428;BME280;1727;42.624;23.406;2023-08-12T05:51:18;95444.09;;;25.88;55.18
3428;BME280;1727;42.624;23.406;2023-08-12T05:53:45;95437.22;;;25.99;54.42
3428;BME280;1727;42.624;23.406;2023-08-12T05:56:13;95439.09;;;26.05;55.40
3428;BME280;1727;42.624;23.406;2023-08-12T05:58:40;95439.81;;;26.38;55.45
3428;BME280;1727;42.624;23.406;2023-08-12T06:01:07;95440.88;;;26.69;53.31
3428;BME280;1727;42.624;23.406;2023-08-12T06:03:34;95429.59;;;26.47;48.23
3428;BME280;1727;42.624;23.406;2023-08-12T06:06:00;95432.66;;;26.57;48.87
3428;BME280;1727;42.624;23.406;2023-08-12T06:08:28;95430.72;;;26.71;47.95
3428;BME280;1727;42.624;23.406;2023-08-12T06:10:55;95428.47;;;26.68;47.22
3428;BME280;1727;42.624;23.406;2023-08-12T06:13:23;95432.91;;;26.80;47.10
3428;BME280;1727;42.624;23.406;2023-08-12T06:15:49;95417.75;;;26.86;46.56
3428;BME280;1727;42.624;23.406;2023-08-12T06:18:16;95419.13;;;27.02;45.92
3428;BME280;1727;42.624;23.406;2023-08-12T06:20:46;95413.84;;;26.82;45.90
3428;BME280;1727;42.624;23.406;2023-08-12T06:23:12;95420.41;;;26.99;45.56
3428;BME280;1727;42.624;23.406;2023-08-12T06:25:39;95421.47;;;26.92;45.38
3428;BME280;1727;42.624;23.406;2023-08-12T06:28:08;95418.31;;;27.01;45.46
3428;BME280;1727;42.624;23.406;2023-08-12T06:30:37;95412.81;;;27.14;44.76
3428;BME280;1727;42.624;23.406;2023-08-12T06:33:04;95408.66;;;27.19;44.50
3428;BME280;1727;42.624;23.406;2023-08-12T06:35:31;95407.69;;;27.31;44.79
3428;BME280;1727;42.624;23.406;2023-08-12T06:37:58;95403.50;;;27.35;44.67
3428;BME280;1727;42.624;23.406;2023-08-12T06:40:24;95402.47;;;27.11;44.47
3428;BME280;1727;42.624;23.406;2023-08-12T06:42:52;95402.97;;;26.32;46.78
3428;BME280;1727;42.624;23.406;2023-08-12T06:45:19;95393.63;;;26.73;45.69
3428;BME280;1727;42.624;23.406;2023-08-12T06:47:47;95399.25;;;26.96;45.13
3428;BME280;1727;42.624;23.406;2023-08-12T06:50:14;95391.09;;;27.09;44.57
3428;BME280;1727;42.624;23.406;2023-08-12T06:52:41;95391.75;;;27.30;44.14
3428;BME280;1727;42.624;23.406;2023-08-12T06:55:08;95382.06;;;27.47;44.71
3428;BME280;1727;42.624;23.406;2023-08-12T06:57:36;95390.78;;;27.86;43.91
3428;BME280;1727;42.624;23.406;2023-08-12T07:00:04;95392.50;;;27.98;42.09
3428;BME280;1727;42.624;23.406;2023-08-12T07:02:31;95393.75;;;28.14;42.71
3428;BME280;1727;42.624;23.406;2023-08-12T07:05:03;95389.03;;;28.28;42.48
3428;BME280;1727;42.624;23.406;2023-08-12T07:07:29;95390.00;;;28.15;42.35
3428;BME280;1727;42.624;23.406;2023-08-12T07:09:56;95387.13;;;27.80;42.43
3428;BME280;1727;42.624;23.406;2023-08-12T07:12:23;95385.63;;;27.84;42.98
3428;BME280;1727;42.624;23.406;2023-08-12T07:14:50;95384.88;;;27.77;43.98
3428;BME280;1727;42.624;23.406;2023-08-12T07:17:17;95383.81;;;27.96;44.44
3428;BME280;1727;42.624;23.406;2023-08-12T07:19:44;95384.75;;;28.20;43.40
3428;BME280;1727;42.624;23.406;2023-08-12T07:22:12;95376.72;;;28.32;41.96
3428;BME280;1727;42.624;23.406;2023-08-12T07:24:39;95377.53;;;28.32;41.76
3428;BME280;1727;42.624;23.406;2023-08-12T07:27:06;95384.47;;;28.28;41.52
3428;BME280;1727;42.624;23.406;2023-08-12T07:29:32;95379.63;;;28.49;42.48
3428;BME280;1727;42.624;23.406;2023-08-12T07:31:59;95383.91;;;28.68;42.32
3428;BME280;1727;42.624;23.406;2023-08-12T07:34:26;95381.69;;;28.77;41.82
3428;BME280;1727;42.624;23.406;2023-08-12T07:36:53;95372.59;;;28.89;41.26
3428;BME280;1727;42.624;23.406;2023-08-12T07:39:24;95377.41;;;28.57;40.94
3428;BME280;1727;42.624;23.406;2023-08-12T07:41:51;95377.94;;;28.36;41.65
3428;BME280;1727;42.624;23.406;2023-08-12T07:44:18;95373.97;;;28.38;42.78
3428;BME280;1727;42.624;23.406;2023-08-12T07:46:45;95372.81;;;28.46;41.82
3428;BME280;1727;42.624;23.406;2023-08-12T07:49:12;95371.84;;;28.41;42.28
3428;BME280;1727;42.624;23.406;2023-08-12T07:51:39;95365.84;;;28.38;42.00
3428;BME280;1727;42.624;23.406;2023-08-12T07:54:06;95364.00;;;28.51;41.90
3428;BME280;1727;42.624;23.406;2023-08-12T07:56:34;95370.19;;;28.40;42.44
3428;BME280;1727;42.624;23.406;2023-08-12T07:59:01;95356.91;;;28.08;43.22
3428;BME280;1727;42.624;23.406;2023-08-12T08:01:28;95350.44;;;28.09;42.90
3428;BME280;1727;42.624;23.406;2023-08-12T08:03:55;95356.66;;;28.10;43.36
3428;BME280;1727;42.624;23.406;2023-08-12T08:06:22;95350.84;;;27.76;42.71
3428;BME280;1727;42.624;23.406;2023-08-12T08:08:49;95353.25;;;27.66;43.59
3428;BME280;1727;42.624;23.406;2023-08-12T08:11:16;95349.50;;;27.67;44.04
3428;BME280;1727;42.624;23.406;2023-08-12T08:13:44;95356.16;;;27.83;42.82
3428;BME280;1727;42.624;23.406;2023-08-12T08:16:11;95364.41;;;27.88;43.26
3428;BME280;1727;42.624;23.406;2023-08-12T08:18:37;95348.94;;;27.58;40.25
3428;BME280;1727;42.624;23.406;2023-08-12T08:21:04;95351.50;;;27.10;41.56
3428;BME280;1727;42.624;23.406;2023-08-12T08:23:31;95356.94;;;27.03;42.22
3428;BME280;1727;42.624;23.406;2023-08-12T08:25:58;95356.44;;;27.13;42.58
3428;BME280;1727;42.624;23.406;2023-08-12T08:28:25;95359.13;;;27.13;42.40
3428;BME280;1727;42.624;23.406;2023-08-12T08:30:53;95354.06;;;26.98;41.92
3428;BME280;1727;42.624;23.406;2023-08-12T08:33:19;95346.75;;;27.30;42.26
3428;BME280;1727;42.624;23.406;2023-08-12T08:35:46;95350.00;;;27.75;41.42
3428;BME280;1727;42.624;23.406;2023-08-12T08:38:13;95347.28;;;28.12;42.70
3428;BME280;1727;42.624;23.406;2023-08-12T08:40:40;95347.28;;;28.12;40.89
3428;BME280;1727;42.624;23.406;2023-08-12T08:43:07;95349.72;;;28.32;40.03
3428;BME280;1727;42.624;23.406;2023-08-12T08:45:34;95347.59;;;28.04;40.76
3428;BME280;1727;42.624;23.406;2023-08-12T08:48:05;95346.72;;;28.22;40.95
3428;BME280;1727;42.624;23.406;2023-08-12T08:50:33;95344.25;;;28.38;40.56
3428;BME280;1727;42.624;23.406;2023-08-12T08:53:01;95336.53;;;28.54;40.78
3428;BME280;1727;42.624;23.406;2023-08-12T08:55:28;95340.69;;;28.68;40.61
3428;BME280;1727;42.624;23.406;2023-08-12T08:57:56;95334.44;;;28.56;39.62
3428;BME280;1727;42.624;23.406;2023-08-12T09:00:23;95331.19;;;28.65;40.47
3428;BME280;1727;42.624;23.406;2023-08-12T09:02:51;95329.78;;;28.75;40.97
3428;BME280;1727;42.624;23.406;2023-08-12T09:05:21;95326.41;;;28.91;40.95
3428;BME280;1727;42.624;23.406;2023-08-12T09:07:49;95328.31;;;29.02;39.39
3428;BME280;1727;42.624;23.406;2023-08-12T09:10:21;95324.84;;;28.83;40.23
3428;BME280;1727;42.624;23.406;2023-08-12T09:12:48;95302.50;;;28.53;39.73
3428;BME280;1727;42.624;23.406;2023-08-12T09:15:18;95311.56;;;28.70;39.50
3428;BME280;1727;42.624;23.406;2023-08-12T09:17:44;95316.03;;;28.76;39.58
3428;BME280;1727;42.624;23.406;2023-08-12T09:20:11;95311.97;;;28.85;39.25
3428;BME280;1727;42.624;23.406;2023-08-12T09:22:40;95306.47;;;28.92;39.11
3428;BME280;1727;42.624;23.406;2023-08-12T09:25:08;95308.78;;;28.88;38.61
3428;BME280;1727;42.624;23.406;2023-08-12T09:27:36;95309.69;;;28.82;39.02
3428;BME280;1727;42.624;23.406;2023-08-12T09:30:04;95304.66;;;28.74;39.26
3428;BME280;1727;42.624;23.406;2023-08-12T09:32:31;95299.63;;;28.89;39.22
3428;BME280;1727;42.624;23.406;2023-08-12T09:34:59;95281.03;;;28.81;37.38
3428;BME280;1727;42.624;23.406;2023-08-12T09:37:28;95291.38;;;28.73;39.30
3428;BME280;1727;42.624;23.406;2023-08-12T09:39:56;95287.81;;;28.49;38.34
3428;BME280;1727;42.624;23.406;2023-08-12T09:42:24;95285.81;;;28.44;38.45
3428;BME280;1727;42.624;23.406;2023-08-12T09:44:50;95289.09;;;28.34;39.42
3428;BME280;1727;42.624;23.406;2023-08-12T09:47:17;95280.75;;;28.06;39.12
3428;BME280;1727;42.624;23.406;2023-08-12T09:49:44;95281.00;;;28.16;39.87
3428;BME280;1727;42.624;23.406;2023-08-12T09:52:11;95272.56;;;28.13;39.55
3428;BME280;1727;42.624;23.406;2023-08-12T09:54:38;95274.22;;;27.95;39.32
3428;BME280;1727;42.624;23.406;2023-08-12T09:57:08;95275.72;;;28.10;38.69
3428;BME280;1727;42.624;23.406;2023-08-12T09:59:37;95276.25;;;28.00;40.50
3428;BME280;1727;42.624;23.406;2023-08-12T10:02:05;95273.88;;;27.92;39.71
3428;BME280;1727;42.624;23.406;2023-08-12T10:04:37;95265.16;;;28.08;39.17
3428;BME280;1727;42.624;23.406;2023-08-12T10:07:07;95272.50;;;28.01;40.08
3428;BME280;1727;42.624;23.406;2023-08-12T10:09:36;95269.03;;;28.12;40.27
3428;BME280;1727;42.624;23.406;2023-08-12T10:12:06;95261.06;;;28.17;38.42
3428;BME280;1727;42.624;23.406;2023-08-12T10:14:33;95256.22;;;28.07;38.93
3428;BME280;1727;42.624;23.406;2023-08-12T10:17:01;95250.38;;;28.11;40.73
3428;BME280;1727;42.624;23.406;2023-08-12T10:19:28;95261.78;;;27.94;40.44
3428;BME280;1727;42.624;23.406;2023-08-12T10:21:56;95253.38;;;27.72;40.34
3428;BME280;1727;42.624;23.406;2023-08-12T10:24:26;95256.88;;;27.73;39.39
3428;BME280;1727;42.624;23.406;2023-08-12T10:26:53;95248.72;;;27.80;39.07
3428;BME280;1727;42.624;23.406;2023-08-12T10:29:22;95249.72;;;27.97;38.88
3428;BME280;1727;42.624;23.406;2023-08-12T10:31:50;95244.16;;;28.10;38.82
3428;BME280;1727;42.624;23.406;2023-08-12T10:34:20;95247.47;;;28.24;39.43
3428;BME280;1727;42.624;23.406;2023-08-12T10:36:48;95242.72;;;28.37;38.36
3428;BME280;1727;42.624;23.406;2023-08-12T10:39:15;95240.50;;;28.46;37.42
3428;BME280;1727;42.624;23.406;2023-08-12T10:41:50;95237.94;;;28.63;36.59
3428;BME280;1727;42.624;23.406;2023-08-12T10:44:21;95233.25;;;28.70;38.96
3428;BME280;1727;42.624;23.406;2023-08-12T10:46:53;95222.91;;;28.67;38.62
3428;BME280;1727;42.624;23.406;2023-08-12T10:49:21;95227.97;;;28.63;37.84
3428;BME280;1727;42.624;23.406;2023-08-12T10:51:49;95228.88;;;28.46;36.85
3428;BME280;1727;42.624;23.406;2023-08-12T10:54:19;95224.06;;;28.48;37.43
3428;BME280;1727;42.624;23.406;2023-08-12T10:57:06;95214.13;;;28.18;37.23
3428;BME280;1727;42.624;23.406;2023-08-12T10:59:54;95215.00;;;28.30;36.98
3428;BME280;1727;42.624;23.406;2023-08-12T11:02:34;95215.00;;;28.30;37.41
3428;BME280;1727;42.624;23.406;2023-08-12T11:05:08;95207.94;;;28.29;36.22
3428;BME280;1727;42.624;23.406;2023-08-12T11:07:38;95210.19;;;28.32;36.97
3428;BME280;1727;42.624;23.406;2023-08-12T11:10:15;95207.63;;;28.37;37.33
3428;BME280;1727;42.624;23.406;2023-08-12T11:12:47;95195.06;;;28.43;36.36
3428;BME280;1727;42.624;23.406;2023-08-12T11:15:18;95197.06;;;28.59;36.52
3428;BME280;1727;42.624;23.406;2023-08-12T11:17:46;95192.47;;;28.60;34.85
3428;BME280;1727;42.624;23.406;2023-08-12T11:20:14;95196.19;;;28.24;33.97
3428;BME280;1727;42.624;23.406;2023-08-12T11:22:44;95193.00;;;28.15;36.18
3428;BME280;1727;42.624;23.406;2023-08-12T11:25:12;95198.41;;;28.15;37.17
3428;BME280;1727;42.624;23.406;2023-08-12T11:27:42;95197.16;;;28.29;36.56
3428;BME280;1727;42.624;23.406;2023-08-12T11:30:11;95197.16;;;28.29;35.54
3428;BME280;1727;42.624;23.406;2023-08-12T11:32:40;95190.44;;;28.20;34.64
3428;BME280;1727;42.624;23.406;2023-08-12T11:35:09;95187.41;;;28.28;36.99
3428;BME280;1727;42.624;23.406;2023-08-12T11:37:37;95201.28;;;28.44;34.51
3428;BME280;1727;42.624;23.406;2023-08-12T11:40:06;95190.00;;;28.58;34.39
3428;BME280;1727;42.624;23.406;2023-08-12T11:42:35;95183.34;;;28.73;34.28
3428;BME280;1727;42.624;23.406;2023-08-12T11:45:02;95181.47;;;28.85;35.07
3428;BME280;1727;42.624;23.406;2023-08-12T11:47:29;95184.75;;;28.98;34.22
3428;BME280;1727;42.624;23.406;2023-08-12T11:49:57;95179.34;;;28.63;35.08
3428;BME280;1727;42.624;23.406;2023-08-12T11:52:25;95172.63;;;28.78;36.00
3428;BME280;1727;42.624;23.406;2023-08-12T11:54:52;95173.94;;;28.63;34.41
3428;BME280;1727;42.624;23.406;2023-08-12T11:57:22;95174.19;;;28.74;33.48
3428;BME280;1727;42.624;23.406;2023-08-12T11:59:49;95171.69;;;28.60;33.58
3428;BME280;1727;42.624;23.406;2023-08-12T12:02:16;95182.50;;;28.37;34.75
3428;BME280;1727;42.624;23.406;2023-08-12T12:04:43;95169.38;;;28.41;34.28
3428;BME280;1727;42.624;23.406;2023-08-12T12:07:18;95175.47;;;28.48;33.99
3428;BME280;1727;42.624;23.406;2023-08-12T12:09:45;95173.69;;;28.30;33.19
3428;BME280;1727;42.624;23.406;2023-08-12T12:12:12;95175.72;;;28.34;32.41
3428;BME280;1727;42.624;23.406;2023-08-12T12:14:39;95164.66;;;28.36;32.78
3428;BME280;1727;42.624;23.406;2023-08-12T12:17:07;95167.25;;;28.43;32.53
3428;BME280;1727;42.624;23.406;2023-08-12T12:19:34;95165.13;;;28.45;32.48
3428;BME280;1727;42.624;23.406;2023-08-12T12:22:03;95164.44;;;28.37;32.43
3428;BME280;1727;42.624;23.406;2023-08-12T12:24:44;95161.59;;;28.56;32.59
3428;BME280;1727;42.624;23.406;2023-08-12T12:27:11;95149.41;;;28.42;31.37
3428;BME280;1727;42.624;23.406;2023-08-12T12:29:38;95148.91;;;28.33;32.11
3428;BME280;1727;42.624;23.406;2023-08-12T12:32:05;95150.69;;;28.39;32.83
3428;BME280;1727;42.624;23.406;2023-08-12T12:34:32;95142.38;;;28.41;32.46
3428;BME280;1727;42.624;23.406;2023-08-12T12:36:59;95151.16;;;28.48;32.26
3428;BME280;1727;42.624;23.406;2023-08-12T12:39:26;95154.44;;;28.61;33.44
3428;BME280;1727;42.624;23.406;2023-08-12T12:41:54;95143.88;;;28.72;32.93
3428;BME280;1727;42.624;23.406;2023-08-12T12:44:23;95137.38;;;28.84;33.16
3428;BME280;1727;42.624;23.406;2023-08-12T12:46:50;95132.50;;;28.93;31.86
3428;BME280;1727;42.624;23.406;2023-08-12T12:49:17;95136.69;;;29.01;31.32
3428;BME280;1727;42.624;23.406;2023-08-12T12:51:43;95121.25;;;29.13;32.98
3428;BME280;1727;42.624;23.406;2023-08-12T12:54:10;95119.03;;;29.21;33.17
3428;BME280;1727;42.624;23.406;2023-08-12T12:56:37;95123.13;;;29.12;32.79
3428;BME280;1727;42.624;23.406;2023-08-12T12:59:05;95124.44;;;29.10;33.11
3428;BME280;1727;42.624;23.406;2023-08-12T13:01:33;95117.88;;;29.06;34.38
3428;BME280;1727;42.624;23.406;2023-08-12T13:03:59;95117.56;;;28.79;34.88
3428;BME280;1727;42.624;23.406;2023-08-12T13:06:26;95120.50;;;28.54;36.19
3428;BME280;1727;42.624;23.406;2023-08-12T13:08:53;95125.25;;;28.35;35.87
3428;BME280;1727;42.624;23.406;2023-08-12T13:11:22;95120.97;;;28.27;35.50
3428;BME280;1727;42.624;23.406;2023-08-12T13:13:48;95109.78;;;28.00;35.76